Time;durP1;ratioP1;P1;durP2;ratioP2;P2;SDS_P1;SDS_P2;PMS_P1;PMS_P2;Temp;Humidity;BMP_temperature;BMP_pressure;BME280_temperature;BME280_humidity;BME280_pressure;Samples;Min_cycle;Max_cycle;Signal;HPM_P1;HPM_P2
2021/12/15 00:00:19;;;;;;;;;;;;;;;16.99;61.96;102890.88;4992776;28;20007;-93
2021/12/15 00:02:45;;;;;;;;;;;;;;;16.30;66.20;102892.69;4993504;28;19925;-93
2021/12/15 00:05:21;;;;;;;;;;;;;;;;;;;;;
2021/12/15 00:07:47;;;;;;;;;;;;;;;15.71;66.72;102890.34;5012824;28;19985;-93
2021/12/15 00:10:13;;;;;;;;;;;;;;;16.62;63.82;102890.50;4994804;28;19924;-93
2021/12/15 00:12:38;;;;;;;;;;;;;;;17.71;60.77;102890.47;4992492;28;19918;-91
2021/12/15 00:15:04;;;;;;;;;;;;;;;17.62;60.16;102884.50;4991862;28;19928;-91
2021/12/15 00:17:29;;;;;;;;;;;;;;;16.99;61.07;102886.28;4990538;28;20025;-92
2021/12/15 00:19:55;;;;;;;;;;;;;;;17.60;60.50;102890.03;4991561;28;19918;-92
2021/12/15 00:22:21;;;;;;;;;;;;;;;16.62;63.75;102893.25;4991732;28;19929;-92
2021/12/15 00:24:46;;;;;;;;;;;;;;;16.11;65.90;102891.63;4991673;28;19914;-91
2021/12/15 00:27:12;;;;;;;;;;;;;;;16.07;66.44;102884.50;4991101;28;19917;-91
2021/12/15 00:29:41;;;;;;;;;;;;;;;16.97;62.57;102887.31;4990944;28;20062;-90
2021/12/15 00:32:06;;;;;;;;;;;;;;;16.70;63.51;102881.09;4991664;28;20005;-90
2021/12/15 00:34:37;;;;;;;;;;;;;;;17.08;61.80;102881.38;5009016;28;19918;-91
2021/12/15 00:37:03;;;;;;;;;;;;;;;17.12;61.04;102880.28;4991656;28;19925;-92
2021/12/15 00:39:29;;;;;;;;;;;;;;;16.39;63.31;102885.94;4992046;28;19917;-91
2021/12/15 00:41:54;;;;;;;;;;;;;;;17.05;61.86;102878.78;4991757;28;19973;-92
2021/12/15 00:44:20;;;;;;;;;;;;;;;16.98;62.63;102884.53;4991289;28;19917;-91
2021/12/15 00:46:45;;;;;;;;;;;;;;;16.80;62.31;102885.22;4990317;28;20359;-91
2021/12/15 00:49:11;;;;;;;;;;;;;;;16.88;61.29;102891.31;4992833;28;19926;-90
2021/12/15 00:51:37;;;;;;;;;;;;;;;17.76;58.26;102884.78;4990802;28;20297;-91
2021/12/15 00:54:03;;;;;;;;;;;;;;;16.10;63.14;102887.97;4990859;28;20461;-92
2021/12/15 00:56:28;;;;;;;;;;;;;;;16.58;63.00;102886.13;4990811;28;19957;-90
2021/12/15 00:58:54;;;;;;;;;;;;;;;16.15;64.91;102887.81;4991086;28;19922;-90
2021/12/15 01:01:19;;;;;;;;;;;;;;;16.69;63.61;102884.81;4989942;28;19917;-92
2021/12/15 01:03:45;;;;;;;;;;;;;;;17.13;61.12;102882.06;4990633;28;19922;-91
2021/12/15 01:06:12;;;;;;;;;;;;;;;15.89;64.71;102884.22;4990716;28;19925;-91
2021/12/15 01:08:41;;;;;;;;;;;;;;;16.12;65.40;102885.19;4991380;28;19918;-91
2021/12/15 01:21:50;;;;;;;;;;;;;;;16.52;61.97;102885.50;5008512;28;19960;-91
2021/12/15 01:24:15;;;;;;;;;;;;;;;17.74;58.45;102891.25;4990172;28;19922;-91
2021/12/15 01:26:40;;;;;;;;;;;;;;;17.12;59.68;102883.00;4990344;28;19918;-90
2021/12/15 01:29:06;;;;;;;;;;;;;;;16.95;61.19;102890.13;4991136;28;20009;-91
2021/12/15 01:31:31;;;;;;;;;;;;;;;16.13;64.02;102889.72;4991713;28;19933;-90
2021/12/15 01:33:57;;;;;;;;;;;;;;;16.48;63.13;102884.69;4993083;28;19964;-90
2021/12/15 01:36:22;;;;;;;;;;;;;;;17.27;58.63;102885.13;4992644;28;19918;-91
2021/12/15 01:38:47;;;;;;;;;;;;;;;17.13;60.30;102888.41;4992336;28;20004;-91
2021/12/15 01:41:20;;;;;;;;;;;;;;;17.06;60.25;102895.13;4988593;28;19925;-91
2021/12/15 01:49:17;;;;;;;;;;;;;;;16.44;64.27;102907.63;4993797;28;19929;-89
2021/12/15 01:51:42;;;;;;;;;;;;;;;17.50;59.51;102902.38;4977018;28;19906;-88
2021/12/15 01:54:08;;;;;;;;;;;;;;;17.13;61.11;102895.75;4975877;28;19928;-90
2021/12/15 01:56:33;;;;;;;;;;;;;;;16.96;61.11;102907.41;4972493;28;19918;-92
2021/12/15 01:58:59;;;;;;;;;;;;;;;17.17;61.38;102906.50;4970383;28;19922;-92
2021/12/15 02:01:25;;;;;;;;;;;;;;;16.94;62.39;102915.66;4970970;28;19929;-93
2021/12/15 02:03:50;;;;;;;;;;;;;;;17.49;60.12;102906.06;4970286;28;19957;-92
2021/12/15 02:06:16;;;;;;;;;;;;;;;17.22;60.55;102913.63;4970595;28;19949;-90
2021/12/15 02:08:42;;;;;;;;;;;;;;;16.84;61.34;102914.22;4970631;28;19930;-92
2021/12/15 02:11:07;;;;;;;;;;;;;;;17.48;59.35;102920.69;4972168;28;19930;-94
2021/12/15 02:13:33;;;;;;;;;;;;;;;17.74;58.26;102914.06;4969927;28;19919;-93
2021/12/15 02:16:01;;;;;;;;;;;;;;;17.04;60.44;102920.75;4969184;28;19926;-92
2021/12/15 02:18:31;;;;;;;;;;;;;;;16.89;61.44;102916.81;4953678;28;20300;-93
2021/12/15 02:21:00;;;;;;;;;;;;;;;17.62;58.57;102912.78;4969449;28;19922;-93
2021/12/15 02:23:34;;;;;;;;;;;;;;;16.69;61.55;102920.31;4970297;28;20008;-92
2021/12/15 02:26:02;;;;;;;;;;;;;;;16.62;61.60;102922.41;4969225;28;19997;-92
2021/12/15 02:28:27;;;;;;;;;;;;;;;16.77;63.00;102915.44;4969389;28;20359;-92
2021/12/15 02:31:05;;;;;;;;;;;;;;;17.22;59.73;102925.44;4969725;28;19955;-92
2021/12/15 02:38:54;;;;;;;;;;;;;;;16.13;64.12;102922.47;4987315;28;19946;-92
2021/12/15 02:41:20;;;;;;;;;;;;;;;16.42;63.33;102923.19;4969771;28;19898;-92
2021/12/15 02:43:46;;;;;;;;;;;;;;;16.94;60.28;102914.75;4969909;28;19969;-93
2021/12/15 02:46:12;;;;;;;;;;;;;;;16.50;60.73;102925.63;4972504;28;19954;-92
2021/12/15 02:48:37;;;;;;;;;;;;;;;17.15;59.98;102921.16;4976491;28;19918;-93
2021/12/15 02:51:02;;;;;;;;;;;;;;;17.48;59.31;102923.41;4977132;28;19925;-92
2021/12/15 02:53:28;;;;;;;;;;;;;;;16.23;62.46;102921.19;4972692;28;19918;-92
2021/12/15 02:55:53;;;;;;;;;;;;;;;17.24;60.40;102915.34;4971509;28;19961;-92
2021/12/15 02:58:20;;;;;;;;;;;;;;;16.36;62.01;102917.97;4971305;28;19910;-93
2021/12/15 03:00:58;;;;;;;;;;;;;;;16.27;61.88;102920.13;4970096;28;19961;-92
2021/12/15 03:06:14;;;;;;;;;;;;;;;17.22;61.57;102919.97;4988021;28;20372;-92
2021/12/15 03:09:13;;;;;;;;;;;;;;;17.08;60.99;102916.94;4970163;28;20383;-92
2021/12/15 03:15:20;;;;;;;;;;;;;;;17.15;60.01;102919.34;4987650;28;19925;-92
2021/12/15 03:17:20;;;;;;;;;;;;;;;17.07;60.17;102931.56;4987350;28;19926;-92
2021/12/15 03:19:45;;;;;;;;;;;;;;;17.51;59.51;102918.72;4970773;28;19919;-93
2021/12/15 03:22:11;;;;;;;;;;;;;;;16.12;65.16;102934.34;4970820;28;19922;-92
2021/12/15 03:24:38;;;;;;;;;;;;;;;17.04;61.25;102928.97;4969942;28;20063;-92
2021/12/15 03:27:10;;;;;;;;;;;;;;;17.61;57.28;102919.19;4970072;28;19917;-93
2021/12/15 03:35:18;;;;;;;;;;;;;;;16.54;62.68;102921.81;4988197;28;19933;-92
2021/12/15 03:37:46;;;;;;;;;;;;;;;16.79;61.33;102922.63;4972049;28;19948;-92
2021/12/15 03:40:15;;;;;;;;;;;;;;;16.78;62.33;102925.41;4969865;28;19922;-92
2021/12/15 03:42:43;;;;;;;;;;;;;;;16.37;63.96;102937.03;4969355;28;19902;-91
2021/12/15 03:45:10;;;;;;;;;;;;;;;17.19;62.07;102928.31;4970222;28;19972;-92
2021/12/15 03:47:37;;;;;;;;;;;;;;;16.51;62.52;102933.75;4970715;28;19922;-92
2021/12/15 03:50:04;;;;;;;;;;;;;;;17.91;57.95;102931.63;4969595;28;19926;-92
2021/12/15 03:52:30;;;;;;;;;;;;;;;18.08;57.05;102929.00;4970877;28;19953;-93
2021/12/15 03:54:55;;;;;;;;;;;;;;;18.48;55.38;102928.97;4970052;28;19970;-93
2021/12/15 03:57:21;;;;;;;;;;;;;;;17.57;58.27;102936.69;4970734;28;19922;-91
2021/12/15 03:59:48;;;;;;;;;;;;;;;17.39;58.92;102932.03;4970682;28;20016;-92
2021/12/15 04:02:15;;;;;;;;;;;;;;;17.48;59.77;102937.09;4967016;28;19902;-92
2021/12/15 04:04:41;;;;;;;;;;;;;;;16.91;60.48;102932.19;4967405;28;19922;-92
2021/12/15 04:07:07;;;;;;;;;;;;;;;17.01;62.09;102940.91;4966488;28;19925;-92
2021/12/15 04:09:32;;;;;;;;;;;;;;;16.85;60.84;102937.88;4967336;28;19974;-92
2021/12/15 04:11:59;;;;;;;;;;;;;;;17.11;61.26;102939.56;4968113;28;19918;-92
2021/12/15 04:14:29;;;;;;;;;;;;;;;17.51;59.48;102937.88;4968432;28;19918;-92
2021/12/15 04:17:06;;;;;;;;;;;;;;;17.55;59.16;102935.88;4967603;28;19922;-91
2021/12/15 04:19:33;;;;;;;;;;;;;;;17.27;60.46;102950.78;4967367;28;19926;-93
2021/12/15 04:21:59;;;;;;;;;;;;;;;17.12;60.17;102945.91;4966695;28;19918;-92
2021/12/15 04:24:26;;;;;;;;;;;;;;;17.80;59.57;102945.75;4967123;28;19909;-92
2021/12/15 04:26:52;;;;;;;;;;;;;;;17.25;59.85;102949.94;4969403;28;19978;-92
2021/12/15 04:29:17;;;;;;;;;;;;;;;16.12;66.04;102956.19;4970451;28;19918;-92
2021/12/15 04:31:47;;;;;;;;;;;;;;;16.65;63.22;102946.88;4971163;28;19913;-92
2021/12/15 04:34:12;;;;;;;;;;;;;;;17.30;59.31;102944.25;4970805;28;19918;-93
2021/12/15 04:36:43;;;;;;;;;;;;;;;17.60;60.47;102954.84;4971153;28;19981;-92
2021/12/15 04:39:10;;;;;;;;;;;;;;;16.54;63.02;102954.63;4976472;28;19918;-91
2021/12/15 04:41:35;;;;;;;;;;;;;;;17.12;61.06;102951.38;4979799;28;19981;-91
2021/12/15 04:44:08;;;;;;;;;;;;;;;16.22;63.44;102960.34;4974805;28;19929;-92
2021/12/15 04:46:35;;;;;;;;;;;;;;;16.77;63.10;102948.22;4971580;28;19957;-92
2021/12/15 04:49:01;;;;;;;;;;;;;;;16.49;63.77;102952.06;4970764;28;19922;-92
2021/12/15 04:51:26;;;;;;;;;;;;;;;17.50;60.24;102951.63;4977901;28;19914;-90
2021/12/15 04:53:52;;;;;;;;;;;;;;;17.17;59.10;102954.84;4975805;28;19970;-92
2021/12/15 04:56:17;;;;;;;;;;;;;;;16.68;62.80;102951.34;4971039;28;20009;-91
2021/12/15 04:58:43;;;;;;;;;;;;;;;16.41;62.65;102948.72;4969997;28;19918;-91
2021/12/15 05:01:09;;;;;;;;;;;;;;;17.41;61.02;102941.97;4969985;28;19933;-91
2021/12/15 05:03:35;;;;;;;;;;;;;;;16.84;63.17;102961.59;4970477;28;20005;-92
2021/12/15 05:06:01;;;;;;;;;;;;;;;17.35;60.15;102955.91;4970102;28;20113;-92
2021/12/15 05:08:27;;;;;;;;;;;;;;;17.26;60.22;102948.09;4969601;28;20021;-91
2021/12/15 05:10:55;;;;;;;;;;;;;;;17.00;60.94;102953.69;4970936;28;20291;-93
2021/12/15 05:13:20;;;;;;;;;;;;;;;17.34;59.85;102951.38;4970442;28;20365;-93
2021/12/15 05:15:45;;;;;;;;;;;;;;;17.56;59.68;102951.38;4970254;28;19930;-92
2021/12/15 05:18:11;;;;;;;;;;;;;;;17.58;59.77;102948.56;4970928;28;19973;-92
2021/12/15 05:20:39;;;;;;;;;;;;;;;17.89;57.64;102954.47;4970409;28;19918;-91
2021/12/15 05:23:04;;;;;;;;;;;;;;;18.51;55.81;102957.13;4970650;28;19918;-92
2021/12/15 05:25:30;;;;;;;;;;;;;;;17.44;58.82;102962.84;4969113;28;19958;-91
2021/12/15 05:27:56;;;;;;;;;;;;;;;17.39;59.07;102964.88;4970153;28;19958;-91
2021/12/15 05:30:21;;;;;;;;;;;;;;;16.54;64.22;102969.16;4954103;28;19958;-91
2021/12/15 05:32:47;;;;;;;;;;;;;;;17.73;59.42;102963.41;4970576;28;19919;-90
2021/12/15 05:35:16;;;;;;;;;;;;;;;17.70;58.44;102959.84;4971274;28;19941;-91
2021/12/15 05:37:42;;;;;;;;;;;;;;;16.63;61.61;102966.06;4971214;28;20553;-91
2021/12/15 05:40:08;;;;;;;;;;;;;;;17.60;59.32;102957.59;4971547;28;19918;-91
2021/12/15 05:42:33;;;;;;;;;;;;;;;16.92;60.08;102963.16;4971265;28;19961;-92
2021/12/15 05:44:58;;;;;;;;;;;;;;;18.26;56.98;102959.25;4970163;28;19923;-91
2021/12/15 05:47:25;;;;;;;;;;;;;;;18.14;56.87;102963.44;4970634;28;19926;-92
2021/12/15 05:49:52;;;;;;;;;;;;;;;18.08;56.64;102970.06;4971938;28;19922;-92
2021/12/15 05:52:17;;;;;;;;;;;;;;;17.75;58.65;102969.72;4972874;28;19946;-93
2021/12/15 05:54:43;;;;;;;;;;;;;;;18.21;55.32;102971.28;4973497;28;19925;-94
2021/12/15 05:57:08;;;;;;;;;;;;;;;17.40;59.43;102972.13;4976538;28;20058;-91
2021/12/15 05:59:34;;;;;;;;;;;;;;;17.48;59.96;102970.84;4979009;28;19909;-92
2021/12/15 06:02:02;;;;;;;;;;;;;;;18.40;55.59;102970.44;4977308;28;20013;-94
2021/12/15 06:04:28;;;;;;;;;;;;;;;17.21;60.57;102969.28;4973062;28;19918;-90
2021/12/15 06:07:02;;;;;;;;;;;;;;;17.47;59.93;102959.97;4969533;28;20375;-89
2021/12/15 06:09:28;;;;;;;;;;;;;;;17.46;59.65;102970.00;4970020;28;20036;-91
2021/12/15 06:11:54;;;;;;;;;;;;;;;16.50;62.04;102975.72;4968368;28;19918;-92
2021/12/15 06:14:23;;;;;;;;;;;;;;;17.30;62.70;102978.00;4968841;28;20638;-89
2021/12/15 06:16:53;;;;;;;;;;;;;;;17.88;59.28;102973.69;4968024;28;19910;-87
2021/12/15 06:19:18;;;;;;;;;;;;;;;16.94;62.17;102985.84;4968941;28;19918;-89
2021/12/15 06:21:44;;;;;;;;;;;;;;;17.82;58.86;102971.22;4968406;28;19970;-90
2021/12/15 06:24:09;;;;;;;;;;;;;;;17.46;60.65;102972.75;4968278;28;19990;-90
2021/12/15 06:26:36;;;;;;;;;;;;;;;16.64;63.63;102977.91;4969680;28;19965;-91
2021/12/15 06:29:02;;;;;;;;;;;;;;;16.58;63.38;102981.75;4970096;28;20002;-91
2021/12/15 06:31:27;;;;;;;;;;;;;;;16.59;64.14;102991.75;4971407;28;19926;-94
2021/12/15 06:33:53;;;;;;;;;;;;;;;16.59;65.48;102990.84;4970282;28;20376;-92
2021/12/15 06:36:21;;;;;;;;;;;;;;;18.01;58.45;102985.91;4970780;28;19950;-90
2021/12/15 06:38:47;;;;;;;;;;;;;;;17.26;60.99;103000.06;4971177;28;19997;-90
2021/12/15 06:41:14;;;;;;;;;;;;;;;17.95;58.30;102991.66;4988913;28;19918;-93
2021/12/15 06:43:45;;;;;;;;;;;;;;;17.30;60.67;102994.41;4990665;28;20009;-94
2021/12/15 07:02:28;;;;;;;;;;;;;;;18.56;56.79;103015.34;5011388;28;19929;-93
2021/12/15 07:04:53;;;;;;;;;;;;;;;18.06;57.05;103016.72;4994376;28;19918;-92
2021/12/15 07:07:18;;;;;;;;;;;;;;;17.95;58.84;103013.56;5013862;23;19929;-93
2021/12/15 07:09:44;;;;;;;;;;;;;;;16.69;62.11;103018.72;5032306;28;20013;-85
2021/12/15 07:12:10;;;;;;;;;;;;;;;18.05;58.50;103014.91;5048418;28;20359;-92
2021/12/15 07:14:35;;;;;;;;;;;;;;;17.68;60.22;103023.84;5048503;28;19984;-88
2021/12/15 07:17:14;;;;;;;;;;;;;;;17.02;62.03;103022.00;5030235;28;19901;-90
2021/12/15 07:22:43;;;;;;;;;;;;;;;17.91;59.67;103019.25;5012236;28;19917;-88
2021/12/15 07:25:13;;;;;;;;;;;;;;;17.40;60.30;103029.59;5028918;28;19984;-90
2021/12/15 07:27:42;;;;;;;;;;;;;;;17.49;60.50;103024.59;5028008;28;19913;-88
2021/12/15 07:30:08;;;;;;;;;;;;;;;18.04;57.16;103017.72;5023194;28;20378;-89
2021/12/15 07:32:33;;;;;;;;;;;;;;;17.85;57.35;103031.31;5021377;28;19913;-88
2021/12/15 07:34:59;;;;;;;;;;;;;;;17.42;60.60;103030.41;5019640;28;19917;-88
2021/12/15 07:37:24;;;;;;;;;;;;;;;17.50;60.18;103020.03;5020564;28;20036;-88
2021/12/15 07:39:59;;;;;;;;;;;;;;;17.84;59.19;103026.78;5020722;28;20287;-89
2021/12/15 07:42:41;;;;;;;;;;;;;;;16.77;62.96;103032.97;5021641;28;20367;-88
2021/12/15 07:45:06;;;;;;;;;;;;;;;18.29;58.02;103027.59;5027476;28;19921;-89
2021/12/15 07:47:31;;;;;;;;;;;;;;;17.90;58.22;103029.31;5042527;28;19921;-89
2021/12/15 07:50:00;;;;;;;;;;;;;;;18.24;58.34;103033.28;5022348;28;19922;-90
2021/12/15 07:52:27;;;;;;;;;;;;;;;17.88;58.89;103029.34;5022124;28;19929;-86
2021/12/15 07:54:52;;;;;;;;;;;;;;;17.95;59.03;103024.53;5012323;28;19917;-89
2021/12/15 07:57:28;;;;;;;;;;;;;;;18.50;56.97;103028.47;5044822;28;20425;-88
2021/12/15 07:59:53;;;;;;;;;;;;;;;17.76;58.26;103038.09;5041949;28;19927;-92
2021/12/15 08:02:18;;;;;;;;;;;;;;;17.54;59.43;103036.28;5029439;28;19989;-90
2021/12/15 08:04:44;;;;;;;;;;;;;;;18.90;53.61;103026.59;5032744;28;19959;-90
2021/12/15 08:07:09;;;;;;;;;;;;;;;18.18;57.77;103036.31;5030875;28;19921;-89
2021/12/15 08:09:35;;;;;;;;;;;;;;;17.83;57.82;103035.97;5033456;28;19924;-88
2021/12/15 08:12:04;;;;;;;;;;;;;;;17.48;60.96;103042.00;5049923;28;19925;-89
2021/12/15 08:14:29;;;;;;;;;;;;;;;17.41;61.02;103045.94;5029449;28;19917;-89
2021/12/15 08:16:54;;;;;;;;;;;;;;;17.49;59.99;103040.16;5031438;28;19988;-93
2021/12/15 08:19:19;;;;;;;;;;;;;;;16.85;61.77;103047.25;5027819;28;19936;-91
2021/12/15 08:21:48;;;;;;;;;;;;;;;17.08;61.27;103045.47;5025036;28;19921;-88
2021/12/15 08:24:13;;;;;;;;;;;;;;;17.42;62.38;103035.88;5025951;28;19917;-90
2021/12/15 08:26:39;;;;;;;;;;;;;;;16.54;62.41;103047.53;5025903;28;19924;-89
2021/12/15 08:29:05;;;;;;;;;;;;;;;17.30;62.35;103043.66;5023945;28;19928;-90
2021/12/15 08:31:30;;;;;;;;;;;;;;;16.45;64.81;103055.09;5024030;28;20375;-89
2021/12/15 08:33:56;;;;;;;;;;;;;;;17.57;60.59;103054.38;5024968;28;19917;-90
2021/12/15 08:36:21;;;;;;;;;;;;;;;18.04;58.63;103050.59;5023117;28;20298;-89
2021/12/15 08:38:48;;;;;;;;;;;;;;;16.59;61.83;103060.06;5019356;28;20019;-86
2021/12/15 08:41:17;;;;;;;;;;;;;;;16.73;62.48;103065.00;5012125;28;19928;-91
2021/12/15 08:43:43;;;;;;;;;;;;;;;16.94;61.93;103055.13;5024711;28;19917;-90
2021/12/15 08:46:13;;;;;;;;;;;;;;;17.46;62.04;103053.97;5023899;28;20363;-92
2021/12/15 08:48:39;;;;;;;;;;;;;;;17.70;59.71;103061.13;5027113;28;19949;-90
2021/12/15 08:51:09;;;;;;;;;;;;;;;17.79;58.43;103058.97;5028881;28;19917;-90
2021/12/15 08:53:38;;;;;;;;;;;;;;;18.19;58.15;103065.47;5029819;28;19917;-95
2021/12/15 08:56:04;;;;;;;;;;;;;;;18.79;54.63;103062.72;5027194;28;19964;-91
2021/12/15 08:58:29;;;;;;;;;;;;;;;17.78;58.65;103059.91;5023493;28;19928;-93
2021/12/15 09:00:57;;;;;;;;;;;;;;;17.29;60.40;103074.69;5023676;28;19917;-92
2021/12/15 09:03:23;;;;;;;;;;;;;;;17.46;62.22;103071.25;5020092;28;19921;-92
2021/12/15 09:05:51;;;;;;;;;;;;;;;17.77;58.71;103064.53;5023846;28;19921;-93
2021/12/15 09:08:17;;;;;;;;;;;;;;;17.82;58.57;103076.16;5025344;28;19925;-94
2021/12/15 09:10:46;;;;;;;;;;;;;;;17.90;57.71;103078.59;5018981;28;19921;-95
2021/12/15 09:13:17;;;;;;;;;;;;;;;18.55;56.79;103079.34;5011612;28;19925;-95
2021/12/15 09:15:42;;;;;;;;;;;;;;;17.51;58.62;103079.28;5025771;28;20024;-94
2021/12/15 09:21:07;;;;;;;;;;;;;;;;;;;;;
2021/12/15 09:23:41;;;;;;;;;;;;;;;17.62;57.27;103082.47;5071073;28;19959;-96
2021/12/15 09:26:09;;;;;;;;;;;;;;;17.86;57.74;103086.03;5047536;28;19976;-91
2021/12/15 09:28:35;;;;;;;;;;;;;;;17.00;61.78;103106.81;5047051;28;20294;-93
2021/12/15 09:31:02;;;;;;;;;;;;;;;17.27;58.71;103090.28;5055407;28;19928;-93
2021/12/15 09:33:32;;;;;;;;;;;;;;;18.19;57.04;103091.03;5063096;28;19924;-93
2021/12/15 09:35:59;;;;;;;;;;;;;;;16.13;61.92;103094.50;5065869;28;20297;-92
2021/12/15 09:38:25;;;;;;;;;;;;;;;16.62;61.85;103109.16;5067294;28;20360;-92
2021/12/15 09:40:52;;;;;;;;;;;;;;;17.56;59.53;103106.44;5064509;28;20362;-93
2021/12/15 09:43:18;;;;;;;;;;;;;;;18.62;54.10;103110.13;5066227;28;20003;-93
2021/12/15 09:45:52;;;;;;;;;;;;;;;17.83;57.17;103109.88;5065753;28;19904;-94
2021/12/15 10:02:50;;;;;;;;;;;;;;;17.38;60.04;103136.38;5000563;28;19928;-94
2021/12/15 10:05:42;;;;;;;;;;;;;;;17.22;60.36;103132.44;5053152;28;19917;-94
2021/12/15 10:19:43;;;;;;;;;;;;;;;18.24;56.84;103134.66;5043707;28;19948;-91
2021/12/15 10:22:26;;;;;;;;;;;;;;;18.32;55.12;103137.94;5027763;28;19921;-89
2021/12/15 10:24:57;;;;;;;;;;;;;;;17.80;57.63;103143.78;5025963;28;19952;-93
2021/12/15 10:27:36;;;;;;;;;;;;;;;18.65;54.19;103137.41;5050244;28;19948;-95
2021/12/15 10:30:07;;;;;;;;;;;;;;;17.95;54.92;103135.91;5054038;28;19921;-94
2021/12/15 10:32:34;;;;;;;;;;;;;;;18.64;55.37;103134.75;5043182;28;19967;-91
2021/12/15 10:35:08;;;;;;;;;;;;;;;18.62;54.40;103129.31;5042273;28;19971;-90
2021/12/15 10:37:34;;;;;;;;;;;;;;;18.86;53.81;103132.84;5042723;28;19916;-90
2021/12/15 10:40:08;;;;;;;;;;;;;;;18.06;56.09;103126.28;5044411;28;20293;-94
2021/12/15 10:42:34;;;;;;;;;;;;;;;19.48;51.79;103128.03;5045991;28;19921;-95
2021/12/15 10:45:04;;;;;;;;;;;;;;;18.88;52.51;103132.75;5059713;28;19978;-93
2021/12/15 10:47:30;;;;;;;;;;;;;;;19.43;51.09;103130.13;5051197;28;19920;-94
2021/12/15 10:49:57;;;;;;;;;;;;;;;17.84;55.71;103134.47;5070383;28;19931;-91
2021/12/15 10:52:22;;;;;;;;;;;;;;;18.96;52.75;103138.75;5071056;28;19917;-91
2021/12/15 10:54:56;;;;;;;;;;;;;;;19.93;50.24;103139.59;5072351;28;19912;-91
2021/12/15 10:57:32;;;;;;;;;;;;;;;18.68;53.07;103140.00;5078348;28;19943;-91
2021/12/15 10:59:59;;;;;;;;;;;;;;;19.02;52.64;103134.84;5073455;28;20386;-89
2021/12/15 11:02:27;;;;;;;;;;;;;;;18.89;52.20;103132.69;5069227;28;19917;-93
2021/12/15 11:04:55;;;;;;;;;;;;;;;18.71;52.97;103131.66;5069947;28;19900;-92
2021/12/15 11:07:25;;;;;;;;;;;;;;;19.82;49.24;103129.16;5070962;28;19920;-93
2021/12/15 11:09:53;;;;;;;;;;;;;;;20.20;48.32;103128.16;5067009;28;19916;-93
2021/12/15 11:12:18;;;;;;;;;;;;;;;19.92;48.19;103139.69;5068244;28;19923;-92
2021/12/15 11:14:45;;;;;;;;;;;;;;;19.74;48.75;103131.34;5071590;28;19916;-89
2021/12/15 11:17:10;;;;;;;;;;;;;;;19.99;47.55;103131.03;5090969;28;19917;-89
2021/12/15 11:19:44;;;;;;;;;;;;;;;20.40;46.69;103129.84;5067308;28;19930;-90
2021/12/15 11:22:28;;;;;;;;;;;;;;;18.72;49.12;103132.53;5081850;28;19916;-91
2021/12/15 11:24:54;;;;;;;;;;;;;;;18.90;49.27;103139.97;5082812;28;19913;-89
2021/12/15 11:27:19;;;;;;;;;;;;;;;18.84;48.17;103132.00;5070939;28;20141;-89
2021/12/15 11:29:44;;;;;;;;;;;;;;;19.44;46.75;103131.91;5067586;28;20407;-90
2021/12/15 11:32:28;;;;;;;;;;;;;;;19.23;47.83;103128.34;5087087;28;19915;-88
2021/12/15 11:35:01;;;;;;;;;;;;;;;19.25;46.98;103126.44;5080961;28;19905;-90
2021/12/15 11:37:43;;;;;;;;;;;;;;;19.27;46.60;103127.22;5041990;28;19944;-91
2021/12/15 11:40:11;;;;;;;;;;;;;;;20.35;45.23;103137.44;5023488;28;19968;-91
2021/12/15 11:42:41;;;;;;;;;;;;;;;19.39;46.75;103134.00;5022841;28;20028;-91
2021/12/15 11:45:07;;;;;;;;;;;;;;;18.98;47.65;103138.69;5022491;28;19924;-91
2021/12/15 11:47:33;;;;;;;;;;;;;;;18.88;49.25;103133.63;5025436;28;19956;-92
2021/12/15 11:50:05;;;;;;;;;;;;;;;17.06;54.74;103146.72;5026553;28;20282;-93
2021/12/15 11:52:37;;;;;;;;;;;;;;;18.14;51.97;103131.41;5058886;28;19987;-91
2021/12/15 11:55:03;;;;;;;;;;;;;;;18.96;50.92;103138.75;5066521;28;19923;-91
2021/12/15 11:57:29;;;;;;;;;;;;;;;18.09;53.28;103135.31;5051900;28;19924;-92
2021/12/15 11:59:59;;;;;;;;;;;;;;;18.65;51.24;103129.19;5045129;28;19912;-92
2021/12/15 12:02:28;;;;;;;;;;;;;;;19.71;49.32;103130.63;5044940;28;19904;-89
2021/12/15 12:04:56;;;;;;;;;;;;;;;19.43;49.57;103121.91;5042388;28;19917;-87
2021/12/15 12:07:35;;;;;;;;;;;;;;;17.64;53.32;103135.31;5042378;28;19936;-89
2021/12/15 12:10:07;;;;;;;;;;;;;;;18.53;51.48;103130.63;5058736;28;19916;-88
2021/12/15 12:12:40;;;;;;;;;;;;;;;18.29;52.72;103139.94;5041014;28;19916;-86
2021/12/15 12:15:07;;;;;;;;;;;;;;;16.80;57.72;103150.41;5043427;28;19924;-87
2021/12/15 12:17:34;;;;;;;;;;;;;;;18.88;51.89;103132.75;5044223;28;20015;-89
2021/12/15 12:20:06;;;;;;;;;;;;;;;18.32;52.24;103121.50;5043330;28;19932;-90
2021/12/15 12:22:32;;;;;;;;;;;;;;;19.31;50.05;103114.28;5044714;28;19921;-87
2021/12/15 12:24:59;;;;;;;;;;;;;;;19.56;49.44;103119.44;5044188;28;19922;-88
2021/12/15 12:27:27;;;;;;;;;;;;;;;19.36;49.61;103117.66;5027855;28;19924;-87
2021/12/15 12:29:54;;;;;;;;;;;;;;;18.04;53.16;103116.34;5021524;28;20363;-88
2021/12/15 12:32:20;;;;;;;;;;;;;;;18.91;51.85;103113.41;5021778;28;19923;-86
2021/12/15 12:34:46;;;;;;;;;;;;;;;18.50;52.09;103102.47;5024152;28;19929;-85
2021/12/15 12:37:13;;;;;;;;;;;;;;;18.13;53.65;103112.31;5023908;28;19917;-88
2021/12/15 12:39:41;;;;;;;;;;;;;;;18.91;51.66;103110.66;5024083;28;19917;-94
2021/12/15 12:42:06;;;;;;;;;;;;;;;18.90;50.99;103109.78;5023936;28;19921;-93
2021/12/15 12:44:35;;;;;;;;;;;;;;;18.29;53.86;103107.94;5025099;28;19952;-94
2021/12/15 12:47:06;;;;;;;;;;;;;;;17.62;54.43;103109.84;5023648;28;19901;-93
2021/12/15 13:00:38;;;;;;;;;;;;;;;17.59;55.17;103115.44;5042568;28;19957;-93
2021/12/15 13:03:07;;;;;;;;;;;;;;;17.38;55.59;103113.56;5024862;28;19921;-92
2021/12/15 13:05:44;;;;;;;;;;;;;;;17.95;55.02;103105.78;5024104;28;19917;-92
2021/12/15 13:08:28;;;;;;;;;;;;;;;17.39;55.41;103107.16;5024205;28;19925;-93
2021/12/15 13:10:56;;;;;;;;;;;;;;;18.28;54.33;103108.91;5025452;28;19981;-93
2021/12/15 13:13:27;;;;;;;;;;;;;;;18.22;53.38;103109.16;5025284;28;19917;-94
2021/12/15 13:15:55;;;;;;;;;;;;;;;17.84;54.97;103098.88;5025189;28;19925;-94
2021/12/15 13:18:20;;;;;;;;;;;;;;;18.65;52.65;103093.53;5025204;28;19925;-93
2021/12/15 13:20:53;;;;;;;;;;;;;;;17.17;57.93;103097.06;5024758;28;19925;-91
2021/12/15 13:23:41;;;;;;;;;;;;;;;18.44;53.92;103095.41;5024370;28;19917;-92
2021/12/15 13:28:51;;;;;;;;;;;;;;;18.70;53.16;103096.94;5043631;28;20263;-93
2021/12/15 13:31:22;;;;;;;;;;;;;;;18.22;53.64;103106.44;5025644;28;19925;-93
2021/12/15 13:33:52;;;;;;;;;;;;;;;17.21;58.05;103112.44;5023774;28;19921;-93
2021/12/15 13:36:25;;;;;;;;;;;;;;;18.70;54.03;103093.34;5024598;28;19921;-93
2021/12/15 13:38:54;;;;;;;;;;;;;;;18.45;54.84;103099.94;5027825;28;19968;-94
2021/12/15 13:44:02;;;;;;;;;;;;;;;18.85;53.23;103094.47;5055889;28;19924;-90
2021/12/15 13:46:27;;;;;;;;;;;;;;;17.04;58.18;103101.25;5048743;28;19912;-93
2021/12/15 13:49:07;;;;;;;;;;;;;;;18.79;54.57;103098.38;5050270;28;19917;-91
2021/12/15 13:51:51;;;;;;;;;;;;;;;18.20;56.41;103097.41;5048376;28;20035;-89
2021/12/15 13:54:40;;;;;;;;;;;;;;;18.26;56.15;103098.97;5051041;28;19905;-89
2021/12/15 13:57:14;;;;;;;;;;;;;;;18.38;54.83;103092.94;5058253;28;19916;-91
2021/12/15 13:59:46;;;;;;;;;;;;;;;18.75;54.51;103086.69;5056250;28;19924;-92
2021/12/15 14:02:17;;;;;;;;;;;;;;;18.44;54.64;103091.78;5056932;28;19964;-93
2021/12/15 14:04:47;;;;;;;;;;;;;;;18.28;54.75;103089.72;5051553;28;19928;-94
2021/12/15 14:07:28;;;;;;;;;;;;;;;18.35;55.04;103091.22;5049193;28;19988;-93
2021/12/15 14:10:20;;;;;;;;;;;;;;;18.42;55.07;103090.00;5044034;28;20290;-94
2021/12/15 14:12:49;;;;;;;;;;;;;;;18.01;56.64;103102.78;5043882;28;19920;-92
2021/12/15 14:15:27;;;;;;;;;;;;;;;18.17;55.55;103117.59;5044371;28;19917;-93
2021/12/15 14:17:56;;;;;;;;;;;;;;;17.50;59.68;103113.97;5045023;28;19917;-92
2021/12/15 14:20:22;;;;;;;;;;;;;;;18.89;54.06;103118.97;5045290;28;20378;-94